createdAt,value
2017-08-23T00:01:20.736Z,98502.69
2017-08-23T00:03:49.142Z,98498.14
2017-08-23T00:06:17.515Z,98497.00
2017-08-23T00:08:45.861Z,98501.48
2017-08-23T00:11:14.209Z,98499.75
2017-08-23T00:13:42.532Z,98491.36
2017-08-23T00:16:11.188Z,98486.89
2017-08-23T00:18:39.509Z,98483.56
2017-08-23T00:21:07.824Z,98483.17
2017-08-23T00:23:36.157Z,98477.06
2017-08-23T00:26:04.476Z,98478.06
2017-08-23T00:28:32.826Z,98478.47
2017-08-23T00:31:01.327Z,98472.67
2017-08-23T00:33:29.671Z,98474.11
2017-08-23T00:35:57.983Z,98469.94
2017-08-23T00:38:26.814Z,98468.33
2017-08-23T00:40:55.135Z,98462.69
2017-08-23T00:43:23.450Z,98462.78
2017-08-23T00:45:51.789Z,98469.66
2017-08-23T00:48:20.130Z,98466.69
2017-08-23T00:50:48.487Z,98468.56
2017-08-23T00:53:16.835Z,98464.59
2017-08-23T00:55:45.294Z,98467.75
2017-08-23T00:58:13.641Z,98472.09
2017-08-23T01:00:42.260Z,98470.05
2017-08-23T01:03:10.579Z,98468.05
2017-08-23T01:05:38.918Z,98477.87
2017-08-23T01:08:07.265Z,98475.66
2017-08-23T01:10:35.610Z,98478.40
2017-08-23T01:13:03.973Z,98474.34
2017-08-23T01:15:32.302Z,98471.33
2017-08-23T01:18:00.657Z,98477.80
2017-08-23T01:20:28.989Z,98465.76
2017-08-23T01:22:57.331Z,98464.13
2017-08-23T01:25:25.651Z,98467.45
2017-08-23T01:27:54.241Z,98470.70
2017-08-23T01:30:22.560Z,98473.56
2017-08-23T01:32:50.890Z,98463.64
2017-08-23T01:35:19.243Z,98452.09
2017-08-23T01:37:47.578Z,98458.06
2017-08-23T01:40:15.950Z,98448.31
2017-08-23T01:42:44.273Z,98451.34
2017-08-23T01:45:12.623Z,98453.78
2017-08-23T01:47:40.959Z,98466.98
2017-08-23T01:50:09.307Z,98465.27
2017-08-23T01:52:37.625Z,98461.11
2017-08-23T01:55:05.958Z,98460.11
2017-08-23T01:57:34.288Z,98455.84
2017-08-23T02:00:02.659Z,98456.84
2017-08-23T02:02:31.017Z,98463.42
2017-08-23T02:04:59.837Z,98463.34
2017-08-23T02:07:28.241Z,98468.51
2017-08-23T02:09:56.593Z,98460.30
2017-08-23T02:12:24.983Z,98454.84
2017-08-23T02:14:53.344Z,98446.53
2017-08-23T02:17:21.685Z,98454.61
2017-08-23T02:19:49.995Z,98448.36
2017-08-23T02:22:18.354Z,98457.77
2017-08-23T02:24:46.695Z,98452.78
2017-08-23T02:27:15.077Z,98451.59
2017-08-23T02:29:43.658Z,98444.61
2017-08-23T02:32:11.992Z,98448.14
2017-08-23T02:34:40.356Z,98444.38
2017-08-23T02:37:08.677Z,98451.83
2017-08-23T02:39:37.027Z,98444.56
2017-08-23T02:42:05.378Z,98451.88
2017-08-23T02:44:33.800Z,98452.05
2017-08-23T02:47:02.334Z,98451.10
2017-08-23T02:49:30.665Z,98448.59
2017-08-23T02:51:59.007Z,98436.63
2017-08-23T02:54:27.368Z,98435.23
2017-08-23T02:56:55.736Z,98438.16
2017-08-23T02:59:24.089Z,98440.89
2017-08-23T03:01:53.172Z,98443.81
2017-08-23T03:04:21.534Z,98438.16
2017-08-23T03:06:49.892Z,98436.05
2017-08-23T03:09:18.213Z,98435.23
2017-08-23T03:11:46.570Z,98422.61
2017-08-23T03:14:14.906Z,98425.25
2017-08-23T03:16:43.247Z,98431.19
2017-08-23T03:19:11.582Z,98422.07
2017-08-23T03:21:40.190Z,98425.73
2017-08-23T03:24:08.531Z,98424.30
2017-08-23T03:26:36.866Z,98429.16
2017-08-23T03:29:05.288Z,98426.83
2017-08-23T03:31:33.614Z,98434.91
2017-08-23T03:34:01.963Z,98434.62
2017-08-23T03:36:30.296Z,98443.42
2017-08-23T03:38:59.190Z,98447.46
2017-08-23T03:41:27.514Z,98446.05
2017-08-23T03:43:55.915Z,98444.73
2017-08-23T03:46:24.267Z,98444.02
2017-08-23T03:48:52.597Z,98448.27
2017-08-23T03:51:21.003Z,98441.27
2017-08-23T03:53:50.083Z,98449.67
2017-08-23T03:56:18.442Z,98447.44
2017-08-23T03:58:46.799Z,98445.32
2017-08-23T04:01:15.137Z,98442.49
2017-08-23T04:03:43.485Z,98440.97
2017-08-23T04:06:11.825Z,98443.91
2017-08-23T04:08:40.195Z,98444.50
2017-08-23T04:11:08.511Z,98443.00
2017-08-23T04:13:36.857Z,98439.86
2017-08-23T04:16:05.198Z,98442.98
2017-08-23T04:18:33.528Z,98445.30
2017-08-23T04:21:01.892Z,98445.89
2017-08-23T04:23:30.212Z,98451.55
2017-08-23T04:25:58.619Z,98446.44
2017-08-23T04:28:26.935Z,98449.00
2017-08-23T04:30:55.549Z,98447.91
2017-08-23T04:33:23.866Z,98446.83
2017-08-23T04:35:52.201Z,98448.02
2017-08-23T04:38:20.543Z,98454.91
2017-08-23T04:40:48.902Z,98443.77
2017-08-23T04:43:17.236Z,98441.48
2017-08-23T04:45:45.567Z,98440.75
2017-08-23T04:48:14.416Z,98449.88
2017-08-23T04:50:42.761Z,98447.20
2017-08-23T04:53:11.155Z,98452.48
2017-08-23T04:55:39.514Z,98450.66
2017-08-23T04:58:07.840Z,98453.03
2017-08-23T05:00:36.249Z,98454.77
2017-08-23T05:03:04.580Z,98458.64
2017-08-23T05:05:32.937Z,98458.04
2017-08-23T05:08:01.274Z,98458.26
2017-08-23T05:10:29.634Z,98460.52
2017-08-23T05:12:58.028Z,98455.30
2017-08-23T05:15:26.354Z,98457.27
2017-08-23T05:17:54.686Z,98456.91
2017-08-23T05:20:23.011Z,98455.70
2017-08-23T05:22:51.370Z,98462.85
2017-08-23T05:25:19.709Z,98465.22
2017-08-23T05:27:48.092Z,98457.52
2017-08-23T05:30:16.436Z,98460.98
2017-08-23T05:32:44.779Z,98464.28
2017-08-23T05:35:13.133Z,98462.88
2017-08-23T05:37:41.454Z,98461.25
2017-08-23T05:40:09.786Z,98457.85
2017-08-23T05:42:38.130Z,98449.58
2017-08-23T05:45:06.463Z,98433.95
2017-08-23T05:47:34.827Z,98440.94
2017-08-23T05:50:03.167Z,98441.03
2017-08-23T05:52:31.513Z,98443.38
2017-08-23T05:54:59.908Z,98438.20
2017-08-23T05:57:28.766Z,98443.78
2017-08-23T05:59:57.110Z,98443.64
2017-08-23T06:02:25.442Z,98436.36
2017-08-23T06:04:53.801Z,98440.41
2017-08-23T06:07:22.876Z,98433.73
2017-08-23T06:09:51.223Z,98431.09
2017-08-23T06:12:19.562Z,98430.52
2017-08-23T06:14:48.384Z,98434.28
2017-08-23T06:17:16.717Z,98432.76
2017-08-23T06:19:45.058Z,98433.00
2017-08-23T06:22:13.421Z,98438.85
2017-08-23T06:24:41.762Z,98426.23
2017-08-23T06:27:10.125Z,98429.78
2017-08-23T06:29:38.445Z,98432.55
2017-08-23T06:32:07.328Z,98427.81
2017-08-23T06:34:35.644Z,98430.13
2017-08-23T06:37:03.955Z,98426.80
2017-08-23T06:39:32.301Z,98428.39
2017-08-23T06:42:00.644Z,98426.47
2017-08-23T06:44:29.010Z,98425.05
2017-08-23T06:46:57.354Z,98421.91
2017-08-23T06:49:25.721Z,98421.38
2017-08-23T06:51:54.042Z,98418.73
2017-08-23T06:54:22.383Z,98414.75
2017-08-23T06:56:50.733Z,98417.98
2017-08-23T06:59:19.056Z,98417.34
2017-08-23T07:01:47.419Z,98419.54
2017-08-23T07:04:15.748Z,98416.09
2017-08-23T07:06:44.105Z,98421.55
2017-08-23T07:09:12.424Z,98421.19
2017-08-23T07:11:40.771Z,98417.17
2017-08-23T07:14:09.128Z,98419.60
2017-08-23T07:16:37.461Z,98421.27
2017-08-23T07:19:05.816Z,98421.30
2017-08-23T07:21:34.150Z,98428.78
2017-08-23T07:24:02.972Z,98424.55
2017-08-23T07:26:31.308Z,98427.36
2017-08-23T07:28:59.660Z,98420.89
2017-08-23T07:31:28.732Z,98414.14
2017-08-23T07:33:57.129Z,98417.06
2017-08-23T07:36:25.471Z,98416.06
2017-08-23T07:38:53.793Z,98413.39
2017-08-23T07:41:22.168Z,98414.89
2017-08-23T07:43:50.502Z,98421.23
2017-08-23T07:46:18.858Z,98416.80
2017-08-23T07:48:47.213Z,98419.14
2017-08-23T07:51:15.526Z,98417.78
2017-08-23T07:53:43.880Z,98419.34
2017-08-23T07:56:12.208Z,98417.55
2017-08-23T07:58:40.595Z,98420.63
2017-08-23T08:01:08.948Z,98424.92
2017-08-23T08:03:37.310Z,98418.23
2017-08-23T08:06:05.651Z,98420.29
2017-08-23T08:08:34.342Z,98412.89
2017-08-23T08:11:02.678Z,98412.09
2017-08-23T08:13:30.997Z,98410.38
2017-08-23T08:15:59.349Z,98414.26
2017-08-23T08:18:27.683Z,98409.05
2017-08-23T08:20:56.024Z,98401.51
2017-08-23T08:23:24.373Z,98405.48
2017-08-23T08:25:52.713Z,98407.98
2017-08-23T08:28:21.071Z,98407.06
2017-08-23T08:30:49.408Z,98401.92
2017-08-23T08:33:18.254Z,98401.68
2017-08-23T08:35:46.591Z,98397.58
2017-08-23T08:38:14.916Z,98396.77
2017-08-23T08:40:43.256Z,98395.53
2017-08-23T08:43:11.591Z,98394.31
2017-08-23T08:45:39.951Z,98398.05
2017-08-23T08:48:08.954Z,98397.37
2017-08-23T08:50:37.541Z,98396.68
2017-08-23T08:53:05.895Z,98391.20
2017-08-23T08:55:34.234Z,98386.39
2017-08-23T08:58:02.573Z,98390.44
2017-08-23T09:00:30.893Z,98392.32
2017-08-23T09:02:59.258Z,98386.84
2017-08-23T09:05:27.581Z,98380.04
2017-08-23T09:07:56.177Z,98383.19
2017-08-23T09:10:24.503Z,98385.50
2017-08-23T09:12:52.842Z,98382.98
2017-08-23T09:15:21.190Z,98384.72
2017-08-23T09:17:49.525Z,98391.40
2017-08-23T09:20:17.870Z,98387.23
2017-08-23T09:22:46.203Z,98383.59
2017-08-23T09:25:14.559Z,98377.73
2017-08-23T09:27:42.891Z,98377.84
2017-08-23T09:30:11.237Z,98375.42
2017-08-23T09:32:39.612Z,98375.23
2017-08-23T09:35:07.929Z,98377.34
2017-08-23T09:37:36.277Z,98371.51
2017-08-23T09:40:04.606Z,98371.95
2017-08-23T09:42:32.955Z,98368.14
2017-08-23T09:45:01.289Z,98367.03
2017-08-23T09:47:29.644Z,98370.05
2017-08-23T09:49:58.004Z,98362.47
2017-08-23T09:52:26.349Z,98360.27
2017-08-23T09:54:54.706Z,98357.67
2017-08-23T09:57:23.043Z,98353.81
2017-08-23T09:59:51.400Z,98356.96
2017-08-23T10:02:19.722Z,98358.21
2017-08-23T10:04:48.065Z,98359.31
2017-08-23T10:07:17.346Z,98354.45
2017-08-23T10:09:45.665Z,98350.67
2017-08-23T10:12:14.009Z,98356.05
2017-08-23T10:14:42.338Z,98357.17
2017-08-23T10:17:10.703Z,98349.80
2017-08-23T10:19:39.029Z,98351.34
2017-08-23T10:22:07.367Z,98356.31
2017-08-23T10:24:35.709Z,98351.08
2017-08-23T10:27:04.036Z,98348.84
2017-08-23T10:29:32.541Z,98349.80
2017-08-23T10:32:00.878Z,98349.61
2017-08-23T10:34:29.242Z,98341.23
2017-08-23T10:36:57.599Z,98341.00
2017-08-23T10:39:25.961Z,98342.44
2017-08-23T10:41:54.300Z,98337.81
2017-08-23T10:44:22.615Z,98332.84
2017-08-23T10:46:50.971Z,98336.39
2017-08-23T10:49:19.311Z,98328.81
2017-08-23T10:51:47.665Z,98323.77
2017-08-23T10:54:16.011Z,98326.80
2017-08-23T10:56:44.345Z,98322.90
2017-08-23T10:59:12.683Z,98327.69
2017-08-23T11:01:41.035Z,98320.30
2017-08-23T11:04:09.385Z,98321.01
2017-08-23T11:06:37.721Z,98318.17
2017-08-23T11:09:06.088Z,98321.78
2017-08-23T11:11:34.422Z,98322.20
2017-08-23T11:14:02.834Z,98317.45
2017-08-23T11:16:31.209Z,98315.50
2017-08-23T11:18:59.532Z,98319.27
2017-08-23T11:21:27.859Z,98315.41
2017-08-23T11:23:56.195Z,98320.00
2017-08-23T11:26:24.813Z,98326.56
2017-08-23T11:28:53.148Z,98319.66
2017-08-23T11:31:21.464Z,98320.95
2017-08-23T11:33:49.804Z,98320.97
2017-08-23T11:36:18.133Z,98326.23
2017-08-23T11:38:46.489Z,98322.34
2017-08-23T11:41:14.816Z,98325.19
2017-08-23T11:43:43.169Z,98319.77
2017-08-23T11:46:12.212Z,98328.59
2017-08-23T11:48:40.589Z,98315.13
2017-08-23T11:51:08.936Z,98313.27
2017-08-23T11:53:37.281Z,98313.83
2017-08-23T11:56:05.638Z,98317.98
2017-08-23T11:58:33.966Z,98313.73
2017-08-23T12:01:02.792Z,98312.52
2017-08-23T12:03:31.108Z,98300.82
2017-08-23T12:05:59.418Z,98299.55
2017-08-23T12:08:27.766Z,98302.50
2017-08-23T12:10:56.108Z,98309.33
2017-08-23T12:13:25.135Z,98307.20
2017-08-23T12:15:53.454Z,98304.27
2017-08-23T12:18:21.807Z,98296.52
2017-08-23T12:20:50.130Z,98277.03
2017-08-23T12:23:18.474Z,98275.56
2017-08-23T12:25:46.820Z,98280.91
2017-08-23T12:28:15.144Z,98287.03
2017-08-23T12:30:43.492Z,98290.27
2017-08-23T12:33:11.833Z,98287.86
2017-08-23T12:35:40.576Z,98298.12
2017-08-23T12:38:08.899Z,98297.84
2017-08-23T12:40:37.229Z,98294.37
2017-08-23T12:43:05.573Z,98293.44
2017-08-23T12:45:33.918Z,98292.91
2017-08-23T12:48:02.269Z,98289.95
2017-08-23T12:50:30.604Z,98286.73
2017-08-23T12:52:58.967Z,98284.69
2017-08-23T12:55:27.292Z,98279.99
2017-08-23T12:57:55.662Z,98281.07
2017-08-23T13:00:24.031Z,98284.69
2017-08-23T13:02:52.377Z,98282.92
2017-08-23T13:05:20.740Z,98283.75
2017-08-23T13:07:49.092Z,98279.99
2017-08-23T13:10:17.745Z,98275.72
2017-08-23T13:12:46.080Z,98272.63
2017-08-23T13:15:14.399Z,98271.83
2017-08-23T13:17:42.735Z,98269.30
2017-08-23T13:20:11.062Z,98268.86
2017-08-23T13:22:39.422Z,98265.24
2017-08-23T13:25:07.751Z,98263.05
2017-08-23T13:27:36.361Z,98269.42
2017-08-23T13:30:04.774Z,98262.67
2017-08-23T13:32:33.108Z,98264.63
2017-08-23T13:35:01.473Z,98261.80
2017-08-23T13:37:29.804Z,98259.36
2017-08-23T13:39:58.527Z,98262.53
2017-08-23T13:42:27.561Z,98265.94
2017-08-23T13:44:55.921Z,98266.24
2017-08-23T13:47:24.254Z,98257.69
2017-08-23T13:49:52.608Z,98256.55
2017-08-23T13:52:20.970Z,98251.40
2017-08-23T13:54:49.556Z,98244.62
2017-08-23T13:57:17.927Z,98244.09
2017-08-23T13:59:46.249Z,98245.82
2017-08-23T14:02:14.593Z,98244.39
2017-08-23T14:04:43.202Z,98235.66
2017-08-23T14:07:12.025Z,98234.53
2017-08-23T14:09:40.338Z,98228.78
2017-08-23T14:12:08.687Z,98224.89
2017-08-23T14:14:37.045Z,98223.84
2017-08-23T14:17:05.386Z,98224.81
2017-08-23T14:19:33.741Z,98223.61
2017-08-23T14:22:02.055Z,98227.41
2017-08-23T14:24:30.780Z,98220.25
2017-08-23T14:26:59.144Z,98220.11
2017-08-23T14:29:27.480Z,98216.95
2017-08-23T14:31:55.816Z,98216.63
2017-08-23T14:34:24.140Z,98214.06
2017-08-23T14:36:52.491Z,98215.48
2017-08-23T14:39:20.964Z,98210.52
2017-08-23T14:41:49.331Z,98210.92
2017-08-23T14:44:17.685Z,98213.55
2017-08-23T14:46:46.047Z,98199.84
2017-08-23T14:49:14.409Z,98203.50
2017-08-23T14:51:42.745Z,98199.66
2017-08-23T14:54:11.092Z,98198.63
2017-08-23T14:56:39.418Z,98196.72
2017-08-23T14:59:07.764Z,98189.83
2017-08-23T15:01:36.122Z,98193.71
2017-08-23T15:04:04.474Z,98197.34
2017-08-23T15:06:32.824Z,98196.56
2017-08-23T15:09:01.150Z,98191.65
2017-08-23T15:11:29.493Z,98194.13
2017-08-23T15:13:57.844Z,98190.06
2017-08-23T15:16:26.673Z,98189.71
2017-08-23T15:18:54.992Z,98186.09
2017-08-23T15:21:23.318Z,98183.16
2017-08-23T15:23:51.658Z,98182.11
2017-08-23T15:26:19.977Z,98178.23
2017-08-23T15:28:48.317Z,98176.23
2017-08-23T15:31:16.650Z,98176.70
2017-08-23T15:33:45.357Z,98176.00
2017-08-23T15:36:13.689Z,98180.30
2017-08-23T15:38:42.021Z,98177.20
2017-08-23T15:41:10.369Z,98179.44
2017-08-23T15:43:38.737Z,98182.55
2017-08-23T15:46:07.093Z,98187.91
2017-08-23T15:48:35.432Z,98175.31
2017-08-23T15:51:03.777Z,98176.81
2017-08-23T15:53:32.113Z,98173.80
2017-08-23T15:56:00.967Z,98174.82
2017-08-23T15:58:29.311Z,98173.80
2017-08-23T16:00:57.641Z,98172.23
2017-08-23T16:03:26.420Z,98171.45
2017-08-23T16:05:54.794Z,98170.30
2017-08-23T16:08:23.187Z,98168.11
2017-08-23T16:10:51.505Z,98170.11
2017-08-23T16:13:19.894Z,98171.44
2017-08-23T16:15:48.255Z,98172.28
2017-08-23T16:18:16.582Z,98170.09
2017-08-23T16:20:44.964Z,98168.90
2017-08-23T16:23:13.302Z,98166.16
2017-08-23T16:25:41.661Z,98166.38
2017-08-23T16:28:09.983Z,98164.91
2017-08-23T16:30:38.346Z,98160.23
2017-08-23T16:33:06.720Z,98163.45
2017-08-23T16:35:35.870Z,98164.59
2017-08-23T16:38:04.209Z,98163.94
2017-08-23T16:40:32.544Z,98155.97
2017-08-23T16:43:00.893Z,98163.56
2017-08-23T16:45:29.237Z,98159.58
2017-08-23T16:47:57.589Z,98159.84
2017-08-23T16:50:25.929Z,98153.56
2017-08-23T16:52:54.267Z,98151.94
2017-08-23T16:55:22.621Z,98151.70
2017-08-23T16:57:51.364Z,98156.67
2017-08-23T17:00:19.723Z,98151.09
2017-08-23T17:02:48.077Z,98154.81
2017-08-23T17:05:17.027Z,98151.93
2017-08-23T17:07:45.371Z,98153.48
2017-08-23T17:10:13.697Z,98152.38
2017-08-23T17:12:42.054Z,98148.17
2017-08-23T17:15:10.396Z,98149.45
2017-08-23T17:17:38.770Z,98150.18
2017-08-23T17:20:07.093Z,98146.83
2017-08-23T17:22:35.892Z,98147.78
2017-08-23T17:25:04.277Z,98151.13
2017-08-23T17:27:32.620Z,98152.44
2017-08-23T17:30:01.081Z,98158.69
2017-08-23T17:32:29.422Z,98156.96
2017-08-23T17:34:57.790Z,98162.66
2017-08-23T17:37:26.110Z,98164.53
2017-08-23T17:39:54.456Z,98157.66
2017-08-23T17:42:24.171Z,98163.25
2017-08-23T17:44:53.954Z,98165.02
2017-08-23T17:47:22.344Z,98164.53
2017-08-23T17:49:50.682Z,98165.02
2017-08-23T17:52:19.033Z,98169.40
2017-08-23T17:54:47.388Z,98172.39
2017-08-23T17:57:15.738Z,98165.77
2017-08-23T17:59:44.673Z,98164.47
2017-08-23T18:02:13.008Z,98166.29
2017-08-23T18:04:41.354Z,98169.00
2017-08-23T18:07:12.489Z,98175.47
2017-08-23T18:09:40.843Z,98183.40
2017-08-23T18:12:09.202Z,98184.92
2017-08-23T18:14:38.643Z,98187.09
2017-08-23T18:17:07.018Z,98177.88
2017-08-23T18:19:35.358Z,98182.27
2017-08-23T18:22:03.719Z,98180.82
2017-08-23T18:24:32.064Z,98188.33
2017-08-23T18:27:00.394Z,98186.47
2017-08-23T18:29:29.133Z,98184.73
2017-08-23T18:31:57.507Z,98186.33
2017-08-23T18:34:25.842Z,98189.95
2017-08-23T18:36:54.213Z,98185.91
2017-08-23T18:39:22.574Z,98194.96
2017-08-23T18:41:50.962Z,98191.75
2017-08-23T18:44:19.303Z,98192.53
2017-08-23T18:46:47.650Z,98185.03
2017-08-23T18:49:16.017Z,98190.91
2017-08-23T18:51:44.380Z,98202.38
2017-08-23T18:54:13.026Z,98208.74
2017-08-23T18:56:41.383Z,98206.85
2017-08-23T18:59:09.722Z,98200.71
2017-08-23T19:01:38.061Z,98199.41
2017-08-23T19:04:06.407Z,98209.61
2017-08-23T19:06:34.734Z,98211.95
2017-08-23T19:09:03.098Z,98213.78
2017-08-23T19:11:31.430Z,98203.72
2017-08-23T19:13:59.794Z,98206.22
2017-08-23T19:16:28.152Z,98207.14
2017-08-23T19:18:56.480Z,98203.85
2017-08-23T19:21:25.204Z,98209.75
2017-08-23T19:23:53.591Z,98203.86
2017-08-23T19:26:21.951Z,98198.05
2017-08-23T19:28:50.313Z,98209.97
2017-08-23T19:31:18.678Z,98204.67
2017-08-23T19:33:47.051Z,98206.08
2017-08-23T19:36:15.413Z,98207.45
2017-08-23T19:38:43.791Z,98206.16
2017-08-23T19:41:12.145Z,98209.46
2017-08-23T19:43:40.497Z,98208.64
2017-08-23T19:46:08.882Z,98212.73
2017-08-23T19:48:37.283Z,98215.01
2017-08-23T19:51:05.639Z,98215.94
2017-08-23T19:53:34.005Z,98213.02
2017-08-23T19:56:02.402Z,98209.70
2017-08-23T19:58:30.805Z,98209.91
2017-08-23T20:00:59.197Z,98209.92
2017-08-23T20:03:27.568Z,98215.87
2017-08-23T20:05:55.909Z,98213.91
2017-08-23T20:08:25.037Z,98219.91
2017-08-23T20:10:53.491Z,98225.05
2017-08-23T20:13:21.824Z,98229.94
2017-08-23T20:15:50.182Z,98221.61
2017-08-23T20:18:18.541Z,98222.00
2017-08-23T20:20:46.903Z,98221.77
2017-08-23T20:23:15.245Z,98227.69
2017-08-23T20:25:43.577Z,98223.11
2017-08-23T20:28:11.926Z,98225.23
2017-08-23T20:30:40.686Z,98229.60
2017-08-23T20:33:09.060Z,98223.70
2017-08-23T20:35:37.402Z,98224.89
2017-08-23T20:38:06.211Z,98231.77
2017-08-23T20:40:34.540Z,98229.03
2017-08-23T20:43:02.874Z,98231.19
2017-08-23T20:45:31.995Z,98224.95
2017-08-23T20:48:00.334Z,98228.48
2017-08-23T20:50:28.696Z,98222.80
2017-08-23T20:52:57.032Z,98230.27
2017-08-23T20:55:25.793Z,98233.73
2017-08-23T20:57:54.140Z,98235.88
2017-08-23T21:00:22.481Z,98233.30
2017-08-23T21:02:50.847Z,98232.58
2017-08-23T21:05:19.182Z,98231.11
2017-08-23T21:07:47.539Z,98235.88
2017-08-23T21:10:16.785Z,98236.15
2017-08-23T21:12:45.395Z,98236.31
2017-08-23T21:15:13.723Z,98239.03
2017-08-23T21:17:42.040Z,98246.80
2017-08-23T21:20:10.401Z,98241.27
2017-08-23T21:22:38.728Z,98237.76
2017-08-23T21:25:07.075Z,98243.21
2017-08-23T21:27:35.424Z,98248.14
2017-08-23T21:30:04.982Z,98250.15
2017-08-23T21:32:33.812Z,98254.28
2017-08-23T21:35:02.695Z,98246.66
2017-08-23T21:37:31.587Z,98243.05
2017-08-23T21:40:00.357Z,98248.38
2017-08-23T21:42:29.655Z,98247.33
2017-08-23T21:44:58.681Z,98247.00
2017-08-23T21:47:27.924Z,98256.73
2017-08-23T21:49:56.286Z,98252.72
2017-08-23T21:52:25.089Z,98250.92
2017-08-23T21:54:53.670Z,98248.64
2017-08-23T21:57:22.006Z,98254.75
2017-08-23T21:59:50.346Z,98257.73
2017-08-23T22:02:18.675Z,98257.59
2017-08-23T22:04:47.506Z,98260.27
2017-08-23T22:07:15.847Z,98252.65
2017-08-23T22:09:44.195Z,98255.23
2017-08-23T22:12:12.543Z,98251.62
2017-08-23T22:14:40.875Z,98249.01
2017-08-23T22:17:12.388Z,98250.66
2017-08-23T22:19:40.702Z,98248.27
2017-08-23T22:22:09.840Z,98248.97
2017-08-23T22:24:38.160Z,98254.52
2017-08-23T22:27:06.476Z,98247.14
2017-08-23T22:29:34.820Z,98248.36
2017-08-23T22:32:03.576Z,98249.75
2017-08-23T22:34:32.692Z,98247.28
2017-08-23T22:37:01.029Z,98242.16
2017-08-23T22:39:29.376Z,98247.08
2017-08-23T22:41:57.725Z,98235.28
2017-08-23T22:44:26.055Z,98239.59
2017-08-23T22:46:54.399Z,98237.46
2017-08-23T22:49:22.739Z,98238.83
2017-08-23T22:51:51.114Z,98245.47
2017-08-23T22:54:19.460Z,98234.50
2017-08-23T22:56:47.807Z,98237.84
2017-08-23T22:59:16.168Z,98236.83
2017-08-23T23:01:44.508Z,98230.80
2017-08-23T23:04:12.871Z,98233.23
2017-08-23T23:06:41.219Z,98231.78
2017-08-23T23:09:09.580Z,98236.49
2017-08-23T23:11:37.990Z,98233.17
2017-08-23T23:14:06.341Z,98227.41
2017-08-23T23:16:34.703Z,98226.87
2017-08-23T23:19:03.050Z,98225.39
2017-08-23T23:21:31.401Z,98218.61
2017-08-23T23:23:59.743Z,98219.80
2017-08-23T23:26:28.103Z,98219.81
2017-08-23T23:28:56.430Z,98213.59
2017-08-23T23:31:24.841Z,98217.69
2017-08-23T23:33:53.190Z,98217.30
2017-08-23T23:36:21.527Z,98217.81
2017-08-23T23:38:49.866Z,98215.19
2017-08-23T23:41:18.236Z,98213.89
2017-08-23T23:43:46.588Z,98217.52
2017-08-23T23:46:14.980Z,98219.30
2017-08-23T23:48:43.372Z,98212.58
2017-08-23T23:51:11.707Z,98212.97
2017-08-23T23:53:40.065Z,98219.31
2017-08-23T23:56:08.417Z,98214.25
2017-08-23T23:58:36.771Z,98214.33
